Johnetta, Kentucky
Current Conditions -  °F | °C
As of 4:15 PM on Saturday 20 Dec 2014 (Local Time) from KI39 Reporting Station
Overcast Overcast  
Wind Chill: 36°   Ceiling: 4700
Heat Index: 36°   Visibility: 10mi
Dew Point: 27°   Wind: 0mph
Humidity: 70%   Direction: NA
Pressure: 30.23"   Gusts: NA
Location:  37.3885°N, 84.2219°W
Report Text: KI39 202115Z AUTO 00000KT 10SM OVC047 02/M03 A3023 RMK AO2
Loading
Personal Weather Stations






























Interactive Weather Map New forecast layout! Learn more

10-Day Weather Forecast

Advertisements
Track Severe Weather on mobile